createdAt,value
2022-11-28T00:01:53.858Z,7.93
2022-11-28T00:04:22.085Z,7.94
2022-11-28T00:06:50.636Z,7.96
2022-11-28T00:09:21.481Z,8.00
2022-11-28T00:11:50.639Z,7.99
2022-11-28T00:14:21.252Z,7.94
2022-11-28T00:16:49.649Z,7.96
2022-11-28T00:19:18.048Z,7.96
2022-11-28T00:21:46.212Z,7.96
2022-11-28T00:24:14.456Z,7.96
2022-11-28T00:26:43.108Z,7.96
2022-11-28T00:29:11.966Z,7.99
2022-11-28T00:31:43.914Z,7.94
2022-11-28T00:34:14.722Z,7.92
2022-11-28T00:36:45.300Z,7.89
2022-11-28T00:39:13.725Z,7.84
2022-11-28T00:41:42.235Z,7.82
2022-11-28T00:44:10.770Z,7.85
2022-11-28T00:46:39.048Z,7.78
2022-11-28T00:49:08.621Z,7.74
2022-11-28T00:51:38.267Z,7.74
2022-11-28T00:54:10.108Z,7.71
2022-11-28T00:56:40.184Z,7.69
2022-11-28T00:59:08.445Z,7.69
2022-11-28T01:01:41.357Z,7.67
2022-11-28T01:04:14.898Z,7.64
2022-11-28T01:06:45.111Z,7.64
2022-11-28T01:09:15.320Z,7.59
2022-11-28T01:11:44.813Z,7.57
2022-11-28T01:14:14.225Z,7.59
2022-11-28T01:16:42.859Z,7.58
2022-11-28T01:19:13.884Z,7.57
2022-11-28T01:21:42.083Z,7.56
2022-11-28T01:24:10.762Z,7.55
2022-11-28T01:26:40.557Z,7.55
2022-11-28T01:29:09.701Z,7.57
2022-11-28T01:31:38.336Z,7.59
2022-11-28T01:34:06.794Z,7.56
2022-11-28T01:36:36.332Z,7.54
2022-11-28T01:39:05.484Z,7.57
2022-11-28T01:41:33.744Z,7.58
2022-11-28T01:44:06.583Z,7.57
2022-11-28T01:46:36.173Z,7.58
2022-11-28T01:49:08.981Z,7.55
2022-11-28T01:51:40.388Z,7.57
2022-11-28T01:54:08.997Z,7.55
2022-11-28T01:56:44.294Z,7.55
2022-11-28T01:59:13.351Z,7.57
2022-11-28T02:01:42.012Z,7.55
2022-11-28T02:04:10.834Z,7.60
2022-11-28T02:06:44.208Z,7.57
2022-11-28T02:09:14.572Z,7.56
2022-11-28T02:12:11.038Z,7.57
2022-11-28T02:15:08.553Z,7.55
2022-11-28T02:17:52.911Z,7.53
2022-11-28T02:20:41.073Z,7.53
2022-11-28T02:23:19.345Z,7.54
2022-11-28T02:26:18.724Z,7.55
2022-11-28T02:29:15.506Z,7.53
2022-11-28T02:32:10.822Z,7.55
2022-11-28T02:34:47.343Z,7.57
2022-11-28T02:37:22.221Z,7.59
2022-11-28T02:40:00.695Z,7.60
2022-11-28T02:42:42.627Z,7.56
2022-11-28T02:45:14.026Z,7.55
2022-11-28T02:47:49.823Z,7.56
2022-11-28T02:50:23.267Z,7.59
2022-11-28T02:52:54.831Z,7.59
2022-11-28T02:55:24.469Z,7.60
2022-11-28T02:57:54.886Z,7.60
2022-11-28T03:00:32.048Z,7.64
2022-11-28T03:03:29.342Z,7.62
2022-11-28T03:06:01.539Z,7.64
2022-11-28T03:08:43.343Z,7.65
2022-11-28T03:11:22.652Z,7.64
2022-11-28T03:13:57.591Z,7.64
2022-11-28T03:16:30.175Z,7.64
2022-11-28T03:19:11.206Z,7.62
2022-11-28T03:21:44.437Z,7.68
2022-11-28T03:24:18.988Z,7.65
2022-11-28T03:26:56.417Z,7.69
2022-11-28T03:29:33.049Z,7.64
2022-11-28T03:32:08.022Z,7.65
2022-11-28T03:34:45.317Z,7.68
2022-11-28T03:37:16.685Z,7.71
2022-11-28T03:39:49.462Z,7.70
2022-11-28T03:42:22.338Z,7.69
2022-11-28T03:44:57.018Z,7.73
2022-11-28T03:47:30.591Z,7.75
2022-11-28T03:50:06.057Z,7.71
2022-11-28T03:52:38.040Z,7.71
2022-11-28T03:55:12.607Z,7.72
2022-11-28T03:57:46.363Z,7.73
2022-11-28T04:00:15.845Z,7.78
2022-11-28T04:02:55.484Z,7.75
2022-11-28T04:05:33.882Z,7.74
2022-11-28T04:08:09.002Z,7.74
2022-11-28T04:10:43.144Z,7.77
2022-11-28T04:13:19.421Z,7.81
2022-11-28T04:15:55.603Z,7.79
2022-11-28T04:18:28.796Z,7.78
2022-11-28T04:21:04.349Z,7.82
2022-11-28T04:23:35.373Z,7.78
2022-11-28T04:26:10.134Z,7.82
2022-11-28T04:28:42.407Z,7.83
2022-11-28T04:31:17.074Z,7.82
2022-11-28T04:34:01.622Z,7.82
2022-11-28T04:36:36.457Z,7.82
2022-11-28T04:39:09.724Z,7.85
2022-11-28T04:41:43.192Z,7.87
2022-11-28T04:44:16.997Z,7.87
2022-11-28T04:46:49.659Z,7.90
2022-11-28T04:49:17.932Z,7.92
2022-11-28T04:51:53.460Z,7.91
2022-11-28T04:54:25.932Z,7.91
2022-11-28T04:57:00.822Z,7.91
2022-11-28T04:59:32.067Z,7.93
2022-11-28T05:02:05.136Z,7.96
2022-11-28T05:04:36.680Z,7.94
2022-11-28T05:07:08.373Z,7.93
2022-11-28T05:09:37.050Z,7.96
2022-11-28T05:12:05.792Z,7.96
2022-11-28T05:14:34.008Z,7.93
2022-11-28T05:17:02.176Z,8.00
2022-11-28T05:19:30.355Z,7.98
2022-11-28T05:21:58.497Z,7.98
2022-11-28T05:24:32.092Z,7.97
2022-11-28T05:27:00.778Z,8.03
2022-11-28T05:29:29.109Z,8.03
2022-11-28T05:31:57.396Z,8.02
2022-11-28T05:34:25.601Z,8.01
2022-11-28T05:36:53.733Z,8.02
2022-11-28T05:39:26.695Z,8.01
2022-11-28T05:41:57.698Z,8.04
2022-11-28T05:44:27.187Z,8.06
2022-11-28T05:46:55.812Z,8.09
2022-11-28T05:49:25.524Z,8.13
2022-11-28T05:51:56.750Z,8.13
2022-11-28T05:54:33.130Z,8.15
2022-11-28T05:57:03.004Z,8.15
2022-11-28T05:59:31.179Z,8.13
2022-11-28T06:02:02.915Z,8.15
2022-11-28T06:04:34.119Z,8.16
2022-11-28T06:07:07.486Z,8.17
2022-11-28T06:09:35.965Z,8.20
2022-11-28T06:12:05.682Z,8.20
2022-11-28T06:14:36.216Z,8.18
2022-11-28T06:17:11.708Z,8.21
2022-11-28T06:19:41.761Z,8.23
2022-11-28T06:22:10.938Z,8.20
2022-11-28T06:24:39.065Z,8.24
2022-11-28T06:27:08.771Z,8.28
2022-11-28T06:29:36.981Z,8.29
2022-11-28T06:32:05.660Z,8.28
2022-11-28T06:34:37.404Z,8.27
2022-11-28T06:37:05.796Z,8.28
2022-11-28T06:39:33.956Z,8.33
2022-11-28T06:42:06.014Z,8.32
2022-11-28T06:44:35.578Z,8.33
2022-11-28T06:47:05.300Z,8.36
2022-11-28T06:49:35.754Z,8.36
2022-11-28T06:52:09.198Z,8.34
2022-11-28T06:54:37.370Z,8.34
2022-11-28T06:57:05.989Z,8.39
2022-11-28T06:59:35.509Z,8.39
2022-11-28T07:02:07.478Z,8.42
2022-11-28T07:04:36.391Z,8.37
2022-11-28T07:07:05.076Z,8.42
2022-11-28T07:09:33.725Z,8.44
2022-11-28T07:12:01.852Z,8.41
2022-11-28T07:14:30.043Z,8.41
2022-11-28T07:16:59.624Z,8.45
2022-11-28T07:19:28.350Z,8.45
2022-11-28T07:21:56.496Z,8.49
2022-11-28T07:24:24.678Z,8.46
2022-11-28T07:26:54.514Z,8.48
2022-11-28T07:29:27.477Z,8.47
2022-11-28T07:31:55.791Z,8.48
2022-11-28T07:34:25.774Z,8.46
2022-11-28T07:36:55.578Z,8.48
2022-11-28T07:39:30.001Z,8.53
2022-11-28T07:42:06.850Z,8.58
2022-11-28T07:44:37.412Z,8.52
2022-11-28T07:47:06.401Z,8.50
2022-11-28T07:49:36.140Z,8.51
2022-11-28T07:52:04.861Z,8.51
2022-11-28T07:54:33.036Z,8.53
2022-11-28T07:57:16.425Z,8.51
2022-11-28T07:59:44.888Z,8.52
2022-11-28T08:02:13.415Z,8.56
2022-11-28T08:04:49.366Z,8.58
2022-11-28T08:07:20.231Z,8.53
2022-11-28T08:09:48.756Z,8.55
2022-11-28T08:12:17.059Z,8.52
2022-11-28T08:14:45.347Z,8.48
2022-11-28T08:17:13.748Z,8.56
2022-11-28T08:19:43.324Z,8.57
2022-11-28T08:22:11.510Z,8.60
2022-11-28T08:24:40.064Z,8.60
2022-11-28T08:27:08.768Z,8.63
2022-11-28T08:29:37.742Z,8.60
2022-11-28T08:32:06.319Z,8.62
2022-11-28T08:34:34.479Z,8.62
2022-11-28T08:37:04.059Z,8.65
2022-11-28T08:39:32.672Z,8.68
2022-11-28T08:42:01.010Z,8.73
2022-11-28T08:44:30.750Z,8.72
2022-11-28T08:47:00.479Z,8.68
2022-11-28T08:49:28.829Z,8.64
2022-11-28T08:51:57.042Z,8.65
2022-11-28T08:54:26.881Z,8.70
2022-11-28T08:56:55.069Z,8.76
2022-11-28T08:59:23.379Z,8.79
2022-11-28T09:01:53.578Z,8.81
2022-11-28T09:04:21.882Z,8.85
2022-11-28T09:06:52.569Z,8.81
2022-11-28T09:09:20.938Z,8.85
2022-11-28T09:11:50.592Z,8.77
2022-11-28T09:14:18.769Z,8.82
2022-11-28T09:16:47.058Z,8.83
2022-11-28T09:19:15.322Z,8.85
2022-11-28T09:21:43.737Z,8.88
2022-11-28T09:24:14.016Z,8.78
2022-11-28T09:26:43.094Z,8.82
2022-11-28T09:29:12.692Z,8.87
2022-11-28T09:31:45.788Z,8.86
2022-11-28T09:34:15.477Z,8.92
2022-11-28T09:36:43.663Z,8.95
2022-11-28T09:39:11.807Z,8.95
2022-11-28T09:41:52.004Z,8.97
2022-11-28T09:44:27.524Z,8.96
2022-11-28T09:47:01.397Z,9.09
2022-11-28T09:49:40.796Z,9.16
2022-11-28T09:52:18.589Z,9.22
2022-11-28T09:54:52.821Z,9.23
2022-11-28T09:57:36.225Z,9.18
2022-11-28T10:00:08.518Z,9.21
2022-11-28T10:02:49.648Z,9.27
2022-11-28T10:05:25.830Z,9.37
2022-11-28T10:08:11.788Z,9.38
2022-11-28T10:10:48.890Z,9.47
2022-11-28T10:13:21.668Z,9.53
2022-11-28T10:15:58.859Z,9.63
2022-11-28T10:18:36.158Z,9.63
2022-11-28T10:21:22.204Z,9.60
2022-11-28T10:23:53.135Z,9.57
2022-11-28T10:26:28.307Z,9.57
2022-11-28T10:28:59.308Z,9.67
2022-11-28T10:31:36.031Z,9.61
2022-11-28T10:34:11.058Z,9.65
2022-11-28T10:36:50.775Z,9.79
2022-11-28T10:39:19.323Z,9.76
2022-11-28T10:42:11.655Z,9.71
2022-11-28T10:44:51.745Z,9.74
2022-11-28T10:47:39.306Z,9.75
2022-11-28T10:50:16.163Z,9.86
2022-11-28T10:52:51.624Z,9.99
2022-11-28T10:55:29.293Z,9.91
2022-11-28T10:58:12.082Z,10.07
2022-11-28T11:00:43.470Z,10.11
2022-11-28T11:03:16.861Z,10.23
2022-11-28T11:05:45.417Z,10.34
2022-11-28T11:08:20.511Z,10.42
2022-11-28T11:10:50.993Z,10.43
2022-11-28T11:13:22.236Z,10.33
2022-11-28T11:15:58.640Z,10.49
2022-11-28T11:18:31.048Z,10.51
2022-11-28T11:21:16.133Z,10.53
2022-11-28T11:23:47.543Z,10.52
2022-11-28T11:26:23.875Z,10.24
2022-11-28T11:28:56.095Z,10.22
2022-11-28T11:31:28.260Z,10.12
2022-11-28T11:34:10.412Z,10.04
2022-11-28T11:36:39.204Z,10.04
2022-11-28T11:39:22.978Z,10.07
2022-11-28T11:41:53.709Z,10.05
2022-11-28T11:44:29.291Z,9.99
2022-11-28T11:47:00.647Z,10.09
2022-11-28T11:49:32.796Z,10.26
2022-11-28T11:52:03.892Z,10.48
2022-11-28T11:54:32.224Z,10.52
2022-11-28T11:57:30.670Z,10.39
2022-11-28T11:59:53.205Z,10.38
2022-11-28T12:02:28.731Z,10.33
2022-11-28T12:05:04.048Z,10.30
2022-11-28T12:07:41.860Z,10.37
2022-11-28T12:10:13.940Z,10.46
2022-11-28T12:12:42.427Z,10.43
2022-11-28T12:15:19.209Z,10.48
2022-11-28T12:17:59.990Z,10.51
2022-11-28T12:20:55.652Z,10.54
2022-11-28T12:23:41.284Z,10.60
2022-11-28T12:26:15.693Z,10.74
2022-11-28T12:28:55.010Z,10.68
2022-11-28T12:31:29.532Z,10.70
2022-11-28T12:34:06.858Z,10.74
2022-11-28T12:36:44.658Z,10.81
2022-11-28T12:39:21.061Z,10.96
2022-11-28T12:42:20.693Z,11.09
2022-11-28T12:45:13.273Z,11.18
2022-11-28T12:47:48.526Z,11.31
2022-11-28T12:50:27.287Z,11.26
2022-11-28T12:53:10.963Z,11.26
2022-11-28T12:55:49.911Z,11.48
2022-11-28T12:58:23.507Z,11.33
2022-11-28T13:00:59.558Z,11.23
2022-11-28T13:03:41.581Z,11.01
2022-11-28T13:06:24.769Z,11.05
2022-11-28T13:09:15.179Z,11.19
2022-11-28T13:11:57.083Z,11.15
2022-11-28T13:14:33.540Z,11.18
2022-11-28T13:17:12.364Z,11.29
2022-11-28T13:19:47.477Z,11.20
2022-11-28T13:22:23.454Z,11.01
2022-11-28T13:25:00.823Z,10.79
2022-11-28T13:27:37.462Z,11.00
2022-11-28T13:30:18.230Z,10.85
2022-11-28T13:32:52.964Z,10.71
2022-11-28T13:35:21.693Z,10.55
2022-11-28T13:40:52.061Z,10.62
2022-11-28T13:43:27.187Z,10.67
2022-11-28T13:45:56.449Z,10.58
2022-11-28T13:51:42.012Z,10.38
2022-11-28T13:54:48.673Z,10.34
2022-11-28T13:57:30.795Z,10.36
2022-11-28T14:00:04.706Z,10.33
2022-11-28T14:02:45.710Z,10.33
2022-11-28T14:05:27.108Z,10.30
2022-11-28T14:07:56.778Z,10.24
2022-11-28T14:10:52.207Z,10.18
2022-11-28T14:13:45.238Z,10.20
2022-11-28T14:16:23.807Z,10.18
2022-11-28T14:19:11.004Z,10.19
2022-11-28T14:21:54.020Z,10.13
2022-11-28T14:24:33.800Z,10.21
2022-11-28T14:27:05.698Z,10.25
2022-11-28T14:29:40.063Z,10.33
2022-11-28T14:32:31.963Z,10.37
2022-11-28T14:35:01.885Z,10.35
2022-11-28T14:37:56.148Z,10.35
2022-11-28T14:41:09.104Z,10.36
2022-11-28T14:43:42.662Z,10.34
2022-11-28T14:46:30.773Z,10.31
2022-11-28T14:49:18.968Z,10.36
2022-11-28T14:52:38.417Z,10.26
2022-11-28T14:55:19.537Z,10.16
2022-11-28T14:57:59.752Z,10.08
2022-11-28T15:00:31.505Z,9.99
2022-11-28T15:03:26.340Z,9.99
2022-11-28T15:05:57.150Z,9.98
2022-11-28T15:08:38.011Z,9.92
2022-11-28T15:11:20.913Z,9.98
2022-11-28T15:14:03.102Z,9.94
2022-11-28T15:16:33.554Z,9.91
2022-11-28T15:19:08.562Z,9.94
2022-11-28T15:21:46.759Z,9.95
2022-11-28T15:24:25.322Z,9.94
2022-11-28T15:26:57.770Z,9.93
2022-11-28T15:29:28.020Z,9.91
2022-11-28T15:32:03.132Z,9.90
2022-11-28T15:34:41.338Z,9.81
2022-11-28T15:37:18.436Z,9.82
2022-11-28T15:39:49.227Z,9.77
2022-11-28T15:42:23.942Z,9.70
2022-11-28T15:44:57.952Z,9.65
2022-11-28T15:47:28.456Z,9.56
2022-11-28T15:50:03.903Z,9.50
2022-11-28T15:52:33.207Z,9.46
2022-11-28T15:55:01.597Z,9.42
2022-11-28T15:57:32.575Z,9.36
2022-11-28T16:00:03.035Z,9.36
2022-11-28T16:02:43.482Z,9.36
2022-11-28T16:05:20.834Z,9.35
2022-11-28T16:07:51.866Z,9.32
2022-11-28T16:10:24.796Z,9.29
2022-11-28T16:12:58.030Z,9.30
2022-11-28T16:15:27.759Z,9.29
2022-11-28T16:17:56.849Z,9.26
2022-11-28T16:20:29.113Z,9.29
2022-11-28T16:23:02.640Z,9.25
2022-11-28T16:25:32.583Z,9.18
2022-11-28T16:28:01.303Z,9.11
2022-11-28T16:30:34.842Z,9.08
2022-11-28T16:33:03.837Z,9.08
2022-11-28T16:35:38.811Z,9.09
2022-11-28T16:38:16.061Z,9.08
2022-11-28T16:40:44.883Z,9.10
2022-11-28T16:43:25.660Z,9.11
2022-11-28T16:46:01.088Z,9.12
2022-11-28T16:48:31.649Z,9.12
2022-11-28T16:54:30.562Z,9.11
2022-11-28T16:57:10.335Z,9.05
2022-11-28T16:59:38.649Z,9.03
2022-11-28T17:02:15.855Z,9.02
2022-11-28T17:04:44.589Z,8.97
2022-11-28T17:07:14.621Z,8.93
2022-11-28T17:09:45.691Z,8.92
2022-11-28T17:12:19.755Z,8.92
2022-11-28T17:14:47.906Z,8.88
2022-11-28T17:17:19.231Z,8.87
2022-11-28T17:19:50.391Z,8.83
2022-11-28T17:22:24.161Z,8.86
2022-11-28T17:24:58.766Z,8.91
2022-11-28T17:27:26.987Z,8.95
2022-11-28T17:29:55.223Z,8.96
2022-11-28T17:32:23.574Z,8.93
2022-11-28T17:34:51.828Z,8.93
2022-11-28T17:37:20.016Z,8.91
2022-11-28T17:40:02.052Z,8.83
2022-11-28T17:42:31.856Z,8.76
2022-11-28T17:45:00.825Z,8.76
2022-11-28T17:47:29.127Z,8.70
2022-11-28T17:50:00.160Z,8.61
2022-11-28T17:52:30.494Z,8.57
2022-11-28T17:55:07.074Z,8.53
2022-11-28T17:57:38.133Z,8.45
2022-11-28T18:00:09.646Z,8.42
2022-11-28T18:02:45.452Z,8.33
2022-11-28T18:05:13.738Z,8.27
2022-11-28T18:07:42.222Z,8.21
2022-11-28T18:10:13.069Z,8.15
2022-11-28T18:12:42.714Z,8.09
2022-11-28T18:15:11.480Z,8.09
2022-11-28T18:17:39.825Z,8.06
2022-11-28T18:20:09.786Z,8.02
2022-11-28T18:22:38.440Z,8.02
2022-11-28T18:25:08.727Z,8.08
2022-11-28T18:27:37.012Z,8.03
2022-11-28T18:30:08.685Z,8.04
2022-11-28T18:32:36.981Z,7.96
2022-11-28T18:35:06.861Z,7.91
2022-11-28T18:37:35.064Z,7.91
2022-11-28T18:40:09.144Z,7.87
2022-11-28T18:42:38.968Z,7.89
2022-11-28T18:45:11.909Z,7.89
2022-11-28T18:47:40.531Z,7.85
2022-11-28T18:50:09.947Z,7.90
2022-11-28T18:52:38.413Z,7.90
2022-11-28T18:55:08.026Z,7.86
2022-11-28T18:57:37.409Z,7.84
2022-11-28T19:00:09.683Z,7.89
2022-11-28T19:02:37.885Z,7.82
2022-11-28T19:05:08.174Z,7.82
2022-11-28T19:07:36.437Z,7.90
2022-11-28T19:10:07.941Z,7.93
2022-11-28T19:12:37.847Z,7.92
2022-11-28T19:15:07.527Z,7.97
2022-11-28T19:17:37.149Z,7.98
2022-11-28T19:20:07.361Z,8.02
2022-11-28T19:22:36.546Z,8.06
2022-11-28T19:25:06.354Z,8.04
2022-11-28T19:27:34.900Z,8.11
2022-11-28T19:30:03.568Z,8.08
2022-11-28T19:32:33.464Z,8.02
2022-11-28T19:35:03.052Z,7.99
2022-11-28T19:37:32.604Z,8.07
2022-11-28T19:40:02.829Z,8.14
2022-11-28T19:42:32.870Z,8.11
2022-11-28T19:45:01.266Z,8.13
2022-11-28T19:47:29.430Z,8.14
2022-11-28T19:49:57.599Z,8.16
2022-11-28T19:52:27.318Z,8.21
2022-11-28T19:54:55.539Z,8.28
2022-11-28T19:57:24.140Z,8.28
2022-11-28T19:59:53.808Z,8.31
2022-11-28T20:02:23.582Z,8.35
2022-11-28T20:04:51.875Z,8.36
2022-11-28T20:07:20.173Z,8.36
2022-11-28T20:09:50.713Z,8.38
2022-11-28T20:12:19.378Z,8.41
2022-11-28T20:14:47.577Z,8.41
2022-11-28T20:17:15.859Z,8.44
2022-11-28T20:19:45.986Z,8.38
2022-11-28T20:22:14.375Z,8.41
2022-11-28T20:24:42.566Z,8.37
2022-11-28T20:27:12.219Z,8.42
2022-11-28T20:29:40.602Z,8.39
2022-11-28T20:32:11.067Z,8.37
2022-11-28T20:34:39.347Z,8.34
2022-11-28T20:37:08.383Z,8.34
2022-11-28T20:39:36.614Z,8.34
2022-11-28T20:42:05.417Z,8.35
2022-11-28T20:44:35.572Z,8.29
2022-11-28T20:47:03.820Z,8.26
2022-11-28T20:49:33.586Z,8.28
2022-11-28T20:52:01.777Z,8.29
2022-11-28T20:54:30.059Z,8.28
2022-11-28T20:57:20.350Z,8.23
2022-11-28T20:59:47.841Z,8.26
2022-11-28T21:02:16.161Z,8.32
2022-11-28T21:04:44.532Z,8.34
2022-11-28T21:07:12.738Z,8.38
2022-11-28T21:09:40.992Z,8.37
2022-11-28T21:12:09.444Z,8.32
2022-11-28T21:14:37.686Z,8.29
2022-11-28T21:17:08.604Z,8.33
2022-11-28T21:19:36.905Z,8.32
2022-11-28T21:22:06.720Z,8.32
2022-11-28T21:24:34.925Z,8.35
2022-11-28T21:27:03.107Z,8.32
2022-11-28T21:29:32.256Z,8.39
2022-11-28T21:32:00.513Z,8.39
2022-11-28T21:34:30.120Z,8.38
2022-11-28T21:36:58.368Z,8.39
2022-11-28T21:39:26.653Z,8.32
2022-11-28T21:41:54.889Z,8.24
2022-11-28T21:44:23.129Z,8.19
2022-11-28T21:46:51.508Z,8.20
2022-11-28T21:49:22.543Z,8.18
2022-11-28T21:51:54.313Z,8.11
2022-11-28T21:54:24.696Z,7.92
2022-11-28T21:56:53.766Z,7.84
2022-11-28T21:59:22.879Z,7.72
2022-11-28T22:01:51.407Z,7.61
2022-11-28T22:04:21.935Z,7.46
2022-11-28T22:06:51.380Z,7.40
2022-11-28T22:09:21.096Z,7.27
2022-11-28T22:11:49.313Z,7.27
2022-11-28T22:14:17.929Z,7.19
2022-11-28T22:16:46.118Z,7.14
2022-11-28T22:19:15.755Z,7.04
2022-11-28T22:21:52.027Z,6.99
2022-11-28T22:24:23.292Z,6.91
2022-11-28T22:26:51.792Z,6.84
2022-11-28T22:29:20.200Z,6.81
2022-11-28T22:31:50.029Z,6.80
2022-11-28T22:34:19.660Z,6.74
2022-11-28T22:36:47.894Z,6.65
2022-11-28T22:39:16.101Z,6.63
2022-11-28T22:41:45.696Z,6.60
2022-11-28T22:44:14.263Z,6.54
2022-11-28T22:46:42.550Z,6.41
2022-11-28T22:49:11.902Z,6.43
2022-11-28T22:51:40.873Z,6.36
2022-11-28T22:54:12.895Z,6.30
2022-11-28T22:56:41.450Z,6.25
2022-11-28T22:59:14.502Z,6.20
2022-11-28T23:01:43.598Z,6.20
2022-11-28T23:04:12.692Z,6.22
2022-11-28T23:06:40.972Z,6.21
2022-11-28T23:09:11.375Z,6.10
2022-11-28T23:11:41.091Z,6.10
2022-11-28T23:14:12.934Z,6.00
2022-11-28T23:16:43.940Z,6.02
2022-11-28T23:19:14.514Z,6.00
2022-11-28T23:21:44.704Z,5.97
2022-11-28T23:24:15.441Z,5.97
2022-11-28T23:26:45.541Z,5.96
2022-11-28T23:29:15.711Z,6.08
2022-11-28T23:31:47.045Z,5.99
2022-11-28T23:34:15.670Z,6.01
2022-11-28T23:36:46.256Z,5.98
2022-11-28T23:39:19.178Z,5.90
2022-11-28T23:41:49.487Z,5.86
2022-11-28T23:44:19.361Z,5.83
2022-11-28T23:46:49.489Z,5.79
2022-11-28T23:49:18.253Z,5.75
2022-11-28T23:51:46.431Z,5.71
2022-11-28T23:54:14.781Z,5.68
2022-11-28T23:56:44.684Z,5.64
2022-11-28T23:59:15.673Z,5.57
